Time;durP1;ratioP1;P1;durP2;ratioP2;P2;SDS_P1;SDS_P2;PMS_P1;PMS_P2;Temp;Humidity;BMP_temperature;BMP_pressure;BME280_temperature;BME280_humidity;BME280_pressure;Samples;Min_cycle;Max_cycle;Signal;HPM_P1;HPM_P2
2024/01/20 00:00:13;;;;;;;5.45;2.75;;;;;;;-0.08;82.46;100631.53;336092;28;17688;-79
2024/01/20 00:00:25;;;;;;;5.60;3.20;;;;;;;-0.13;82.53;100638.19;336098;28;17807;-80
2024/01/20 00:00:37;;;;;;;5.93;3.58;;;;;;;-0.17;83.10;100631.25;335626;28;17778;-79
2024/01/20 00:00:50;;;;;;;5.65;3.50;;;;;;;-0.16;82.74;100632.13;336300;28;4843;-79
2024/01/20 00:01:02;;;;;;;7.53;3.38;;;;;;;-0.20;83.21;100631.19;333785;28;12681;-79
2024/01/20 00:01:14;;;;;;;7.25;3.22;;;;;;;-0.17;83.31;100632.97;336384;28;4511;-80
2024/01/20 00:01:27;;;;;;;6.38;3.40;;;;;;;-0.20;83.87;100631.19;337338;28;7580;-81
2024/01/20 00:01:39;;;;;;;7.13;3.45;;;;;;;-0.20;83.04;100636.31;334673;28;18463;-80
2024/01/20 00:01:52;;;;;;;9.40;3.70;;;;;;;-0.23;82.95;100631.09;332518;28;5295;-79
2024/01/20 00:02:04;;;;;;;9.68;3.53;;;;;;;-0.19;83.29;100632.91;334716;28;17765;-79
2024/01/20 00:02:16;;;;;;;9.68;3.78;;;;;;;-0.19;82.96;100627.81;337723;28;4772;-80
2024/01/20 00:02:29;;;;;;;9.45;3.90;;;;;;;-0.23;83.57;100626.84;334802;28;17982;-80
2024/01/20 00:02:41;;;;;;;9.48;3.80;;;;;;;-0.23;83.46;100620.88;337616;28;5430;-80
2024/01/20 00:02:55;;;;;;;7.65;3.67;;;;;;;-0.23;83.18;100626.00;335103;28;17877;-80
2024/01/20 00:03:07;;;;;;;7.93;3.92;;;;;;;-0.25;83.13;100632.75;332901;28;4791;-79
2024/01/20 00:03:20;;;;;;;6.82;3.60;;;;;;;-0.31;83.91;100632.59;334975;28;17821;-80
2024/01/20 00:03:32;;;;;;;5.75;3.58;;;;;;;-0.30;83.13;100629.19;337431;28;5097;-80
2024/01/20 00:03:44;;;;;;;5.82;3.42;;;;;;;-0.37;83.46;100628.16;330578;28;17689;-79
2024/01/20 00:03:56;;;;;;;7.80;3.38;;;;;;;-0.42;83.81;100617.84;338620;28;5461;-79
2024/01/20 00:04:08;;;;;;;8.52;3.47;;;;;;;-0.43;83.55;100623.75;335925;28;4951;-79
2024/01/20 00:04:21;;;;;;;8.07;3.53;;;;;;;-0.39;83.26;100626.41;338284;28;5423;-79
2024/01/20 00:04:33;;;;;;;7.35;3.45;;;;;;;-0.42;83.33;100622.09;337566;28;4629;-81
2024/01/20 00:04:45;;;;;;;7.22;3.20;;;;;;;-0.41;84.07;100622.09;331767;28;18057;-79
2024/01/20 00:04:57;;;;;;;7.80;3.45;;;;;;;-0.37;83.77;100623.06;340075;28;4602;-80
2024/01/20 00:05:10;;;;;;;7.90;3.60;;;;;;;-0.39;84.11;100624.69;336963;28;17908;-79
2024/01/20 00:05:22;;;;;;;6.97;3.30;;;;;;;-0.41;83.95;100622.09;340288;28;4677;-79
2024/01/20 00:05:35;;;;;;;6.55;3.10;;;;;;;-0.44;84.45;100627.13;337503;28;17896;-79
2024/01/20 00:05:47;;;;;;;5.78;3.28;;;;;;;-0.44;84.23;100622.03;338623;28;5031;-80
2024/01/20 00:05:59;;;;;;;5.90;3.10;;;;;;;-0.45;84.71;100621.97;333590;28;4584;-79
2024/01/20 00:06:11;;;;;;;5.82;3.13;;;;;;;-0.43;84.13;100623.75;335122;28;17996;-80
2024/01/20 00:06:23;;;;;;;6.25;3.30;;;;;;;-0.44;84.54;100619.47;335164;28;11527;-79
2024/01/20 00:06:36;;;;;;;6.00;3.50;;;;;;;-0.46;84.00;100617.72;337666;28;4539;-79
2024/01/20 00:06:48;;;;;;;6.30;3.60;;;;;;;-0.47;83.92;100621.94;337063;28;13275;-79
2024/01/20 00:07:00;;;;;;;6.15;3.42;;;;;;;-0.45;83.88;100615.19;335110;28;17554;-79
2024/01/20 00:07:13;;;;;;;5.47;2.95;;;;;;;-0.48;83.94;100615.13;337653;28;5775;-79
2024/01/20 00:07:25;;;;;;;5.13;2.90;;;;;;;-0.45;83.97;100619.44;334499;28;17842;-79
2024/01/20 00:07:37;;;;;;;5.50;3.17;;;;;;;-0.46;84.25;100617.72;332689;28;4843;-80
2024/01/20 00:07:50;;;;;;;5.47;3.05;;;;;;;-0.53;83.77;100616.66;333448;28;17928;-79
2024/01/20 00:08:02;;;;;;;5.72;3.13;;;;;;;-0.52;83.93;100617.53;336216;28;5439;-79
2024/01/20 00:08:14;;;;;;;7.35;3.38;;;;;;;-0.57;83.66;100617.41;333442;28;8722;-79
2024/01/20 00:08:27;;;;;;;10.00;3.78;;;;;;;-0.59;83.76;100621.59;336252;28;4767;-80
2024/01/20 00:08:39;;;;;;;9.45;3.80;;;;;;;-0.64;83.96;100625.72;335131;28;4523;-79
2024/01/20 00:08:51;;;;;;;6.13;3.38;;;;;;;-0.61;84.20;100615.56;332382;28;18374;-81
2024/01/20 00:09:03;;;;;;;6.47;3.60;;;;;;;-0.66;84.07;100624.81;330548;28;4581;-80
2024/01/20 00:09:15;;;;;;;7.15;3.72;;;;;;;-0.63;84.02;100620.63;332228;28;18238;-80
2024/01/20 00:09:29;;;;;;;6.05;3.45;;;;;;;-0.63;84.12;100617.22;335001;28;4773;-80
2024/01/20 00:09:56;;;;;;;5.28;2.97;;;;;;;-0.69;84.45;100615.34;332232;28;17113;-79
2024/01/20 00:10:12;;;;;;;4.40;2.63;;;;;;;-0.66;84.67;100617.16;334414;28;5284;-80
2024/01/20 00:10:25;;;;;;;5.05;2.90;;;;;;;-0.64;84.89;100620.63;333158;28;17693;-81
2024/01/20 00:10:37;;;;;;;5.43;3.10;;;;;;;-0.62;84.21;100616.41;329231;28;18327;-80
2024/01/20 00:10:49;;;;;;;5.90;3.03;;;;;;;-0.62;84.15;100621.53;337619;28;5343;-81
2024/01/20 00:11:02;;;;;;;5.18;2.92;;;;;;;-0.61;84.02;100613.88;334076;28;18522;-80
2024/01/20 00:11:14;;;;;;;5.60;3.00;;;;;;;-0.61;84.24;100619.00;337852;28;4528;-80
2024/01/20 00:11:27;;;;;;;5.90;3.08;;;;;;;-0.58;84.55;100618.25;335332;28;17804;-79
2024/01/20 00:11:39;;;;;;;5.15;2.78;;;;;;;-0.55;83.96;100615.75;337329;28;4638;-79
2024/01/20 00:11:51;;;;;;;5.43;3.03;;;;;;;-0.52;83.93;100618.41;337058;28;18189;-81
2024/01/20 00:12:06;;;;;;;6.30;3.22;;;;;;;-0.50;84.47;100606.53;335626;28;17822;-79
2024/01/20 00:12:18;;;;;;;7.07;3.17;;;;;;;-0.46;83.98;100621.13;336426;28;17518;-80
2024/01/20 00:12:33;;;;;;;6.72;2.92;;;;;;;-0.43;83.79;100618.63;335020;28;16425;-79
2024/01/20 00:12:46;;;;;;;6.88;3.22;;;;;;;-0.41;83.83;100622.09;334540;28;16397;-79
2024/01/20 00:12:58;;;;;;;6.75;3.28;;;;;;;-0.38;84.19;100610.22;337594;28;4621;-80
2024/01/20 00:13:10;;;;;;;7.30;3.28;;;;;;;-0.42;83.79;100615.28;337419;28;5247;-80
2024/01/20 00:13:22;;;;;;;7.47;3.47;;;;;;;-0.48;84.08;100617.66;333888;28;18369;-79
2024/01/20 00:13:34;;;;;;;6.72;3.80;;;;;;;-0.51;83.52;100620.13;336469;28;5313;-80
2024/01/20 00:13:47;;;;;;;6.13;3.63;;;;;;;-0.54;83.84;100620.06;335830;28;11296;-79
2024/01/20 00:13:59;;;;;;;6.53;3.60;;;;;;;-0.64;83.67;100618.06;337738;28;4740;-81
2024/01/20 00:14:11;;;;;;;6.60;3.28;;;;;;;-0.61;83.62;100619.00;325546;28;5335;-79
2024/01/20 00:14:23;;;;;;;6.90;3.50;;;;;;;-0.60;84.30;100619.88;336203;28;5426;-80
2024/01/20 00:14:35;;;;;;;6.95;3.42;;;;;;;-0.57;83.51;100617.41;336123;28;5382;-80
2024/01/20 00:14:48;;;;;;;6.65;3.15;;;;;;;-0.60;84.11;100614.78;329118;28;18000;-79
2024/01/20 00:15:01;;;;;;;8.88;3.20;;;;;;;-0.68;83.79;100619.66;336376;29;5361;-80
2024/01/20 00:15:13;;;;;;;10.07;3.28;;;;;;;-0.69;84.12;100614.50;333783;28;18942;-80
2024/01/20 00:15:26;;;;;;;8.15;3.30;;;;;;;-0.67;84.42;100617.97;336218;28;8439;-80
2024/01/20 00:15:39;;;;;;;6.85;3.35;;;;;;;-0.67;83.81;100612.84;333433;28;18253;-79
2024/01/20 00:15:51;;;;;;;8.38;3.53;;;;;;;-0.67;84.36;100617.97;335967;28;5535;-80
2024/01/20 00:16:04;;;;;;;8.13;3.22;;;;;;;-0.67;84.15;100617.97;332870;28;17954;-80
2024/01/20 00:16:16;;;;;;;7.72;3.35;;;;;;;-0.64;83.98;100616.38;332135;28;4617;-80
2024/01/20 00:16:28;;;;;;;6.30;3.33;;;;;;;-0.65;84.12;100622.28;333399;28;19481;-80
2024/01/20 00:16:40;;;;;;;6.63;3.30;;;;;;;-0.61;83.55;100613.03;337861;28;4771;-80
2024/01/20 00:16:53;;;;;;;6.20;2.90;;;;;;;-0.59;83.68;100616.50;335011;28;12383;-79
2024/01/20 00:17:06;;;;;;;5.35;3.15;;;;;;;-0.57;83.60;100619.94;337785;28;5149;-79
2024/01/20 00:17:35;;;;;;;7.50;3.88;;;;;;;-0.57;83.34;100614.84;333770;28;17590;-80
2024/01/20 00:17:47;;;;;;;7.00;3.65;;;;;;;-0.58;83.54;100618.25;331262;28;10094;-79
2024/01/20 00:18:00;;;;;;;7.10;3.70;;;;;;;-0.66;84.37;100619.72;338136;28;5193;-80
2024/01/20 00:18:12;;;;;;;7.18;3.63;;;;;;;-0.72;84.13;100616.97;339032;28;4705;-80
2024/01/20 00:18:24;;;;;;;8.00;3.83;;;;;;;-0.79;84.40;100612.50;332471;28;16193;-80
2024/01/20 00:18:37;;;;;;;7.47;3.88;;;;;;;-0.77;84.37;100610.88;337675;28;5531;-80
2024/01/20 00:18:49;;;;;;;8.00;3.92;;;;;;;-0.72;84.85;100619.53;334095;28;17906;-80
2024/01/20 00:19:01;;;;;;;6.93;3.85;;;;;;;-0.82;84.49;100613.28;335254;29;4545;-80
2024/01/20 00:19:13;;;;;;;6.97;3.80;;;;;;;-0.74;84.57;100621.19;332878;29;4948;-80
2024/01/20 00:19:25;;;;;;;6.97;3.80;;;;;;;-0.79;84.85;100615.91;335076;29;4589;-80
2024/01/20 00:19:38;;;;;;;7.30;4.05;;;;;;;-0.78;85.05;100614.25;331970;29;13271;-79
2024/01/20 00:19:50;;;;;;;6.20;3.75;;;;;;;-0.79;85.02;100615.91;336051;28;4670;-80
2024/01/20 00:20:05;;;;;;;7.45;3.60;;;;;;;-0.72;85.26;100617.84;333541;28;17744;-80
2024/01/20 00:20:17;;;;;;;8.23;3.78;;;;;;;-0.62;84.42;100617.28;336870;28;4778;-80
2024/01/20 00:20:29;;;;;;;8.25;4.03;;;;;;;-0.54;85.00;100619.16;333729;28;18029;-80
2024/01/20 00:20:42;;;;;;;8.70;4.10;;;;;;;-0.51;84.51;100620.13;337022;28;4705;-80
2024/01/20 00:20:55;;;;;;;8.52;3.72;;;;;;;-0.46;84.00;100616.03;336297;28;18342;-80
2024/01/20 00:21:07;;;;;;;7.68;3.55;;;;;;;-0.45;84.46;100617.72;338196;28;4536;-80
2024/01/20 00:21:19;;;;;;;7.70;3.45;;;;;;;-0.44;83.58;100616.94;335130;28;18279;-80
2024/01/20 00:21:32;;;;;;;7.07;3.45;;;;;;;-0.47;84.01;100615.97;338096;28;4752;-80
2024/01/20 00:21:44;;;;;;;6.03;3.25;;;;;;;-0.49;83.86;100612.50;335463;28;17236;-79
2024/01/20 00:21:56;;;;;;;8.60;3.45;;;;;;;-0.50;83.72;100616.75;337779;28;4549;-80
2024/01/20 00:22:08;;;;;;;9.05;3.67;;;;;;;-0.57;83.66;100614.84;333179;28;4616;-80
2024/01/20 00:22:20;;;;;;;8.05;4.00;;;;;;;-0.54;84.80;100620.06;334561;28;18161;-80
2024/01/20 00:22:33;;;;;;;7.78;3.80;;;;;;;-0.47;84.05;100615.97;337936;28;4679;-81
2024/01/20 00:22:45;;;;;;;7.10;3.53;;;;;;;-0.42;84.17;100619.53;334796;28;18200;-80
2024/01/20 00:22:58;;;;;;;7.00;3.25;;;;;;;-0.40;84.38;100615.31;337633;28;5248;-79
2024/01/20 00:23:10;;;;;;;6.28;2.92;;;;;;;-0.38;84.41;100616.22;335147;28;17787;-79
2024/01/20 00:23:23;;;;;;;7.07;3.30;;;;;;;-0.36;84.31;100623.91;337406;28;5552;-79
2024/01/20 00:23:37;;;;;;;7.30;3.45;;;;;;;-0.37;84.02;100622.19;334664;28;18037;-79
2024/01/20 00:23:50;;;;;;;8.38;3.83;;;;;;;-0.30;84.00;100621.53;335023;28;16713;-79
2024/01/20 00:24:02;;;;;;;8.10;4.05;;;;;;;-0.27;84.07;100614.81;337747;28;5276;-80
2024/01/20 00:24:14;;;;;;;7.97;4.10;;;;;;;-0.25;83.92;100607.19;335221;28;18358;-79
2024/01/20 00:24:26;;;;;;;7.90;4.07;;;;;;;-0.31;83.32;100613.00;337644;28;4548;-80
2024/01/20 00:24:38;;;;;;;8.60;3.80;;;;;;;-0.30;83.89;100619.84;336851;28;13093;-80
2024/01/20 00:24:51;;;;;;;8.48;3.63;;;;;;;-0.29;83.52;100615.59;334943;28;18266;-80
2024/01/20 00:25:04;;;;;;;6.32;3.30;;;;;;;-0.28;84.46;100617.31;336827;28;5322;-79
2024/01/20 00:25:17;;;;;;;6.03;3.60;;;;;;;-0.29;84.20;100615.59;338952;28;4672;-80
2024/01/20 00:25:29;;;;;;;7.45;4.00;;;;;;;-0.26;84.18;100620.81;339225;28;4517;-80
2024/01/20 00:25:41;;;;;;;7.82;4.05;;;;;;;-0.28;83.44;100622.44;335836;28;17820;-80
2024/01/20 00:25:53;;;;;;;7.32;3.80;;;;;;;-0.27;84.17;100619.06;339141;28;4585;-80
2024/01/20 00:26:05;;;;;;;6.70;3.38;;;;;;;-0.28;84.13;100622.44;336332;28;16555;-80
2024/01/20 00:26:17;;;;;;;6.55;3.47;;;;;;;-0.27;84.43;100614.81;338129;28;5470;-80
2024/01/20 00:26:30;;;;;;;6.45;3.67;;;;;;;-0.29;83.72;100615.59;339247;28;5228;-80
2024/01/20 00:26:43;;;;;;;6.70;3.78;;;;;;;-0.30;83.71;100619.84;335723;28;17921;-79
2024/01/20 00:26:55;;;;;;;7.78;3.85;;;;;;;-0.33;83.68;100613.78;332867;28;5668;-80
2024/01/20 00:27:07;;;;;;;7.93;3.80;;;;;;;-0.32;83.98;100615.50;335000;28;17882;-80
2024/01/20 00:27:19;;;;;;;8.10;4.15;;;;;;;-0.29;84.27;100620.72;337068;28;5145;-79
2024/01/20 00:27:31;;;;;;;7.13;3.92;;;;;;;-0.33;83.23;100616.34;334678;28;17847;-81
2024/01/20 00:27:44;;;;;;;6.38;3.60;;;;;;;-0.37;83.64;100615.41;337574;28;5184;-80
2024/01/20 00:27:57;;;;;;;9.20;3.75;;;;;;;-0.36;83.78;100619.69;330741;28;16644;-80
2024/01/20 00:28:09;;;;;;;9.70;4.40;;;;;;;-0.39;83.61;100623.84;338856;28;5501;-80
2024/01/20 00:28:21;;;;;;;8.02;4.10;;;;;;;-0.41;83.36;100621.25;336258;28;18433;-79
2024/01/20 00:28:33;;;;;;;5.93;3.77;;;;;;;-0.41;83.89;100622.09;339046;28;5649;-80
2024/01/20 00:28:45;;;;;;;6.00;3.65;;;;;;;-0.43;83.75;100618.63;339207;28;5218;-80
2024/01/20 00:28:57;;;;;;;6.43;3.80;;;;;;;-0.50;83.41;100616.75;337042;28;17337;-81
2024/01/20 00:29:09;;;;;;;6.05;3.90;;;;;;;-0.57;83.89;100614.84;339035;28;4571;-80
2024/01/20 00:29:22;;;;;;;6.20;3.95;;;;;;;-0.59;84.14;100619.03;336421;28;13364;-80
2024/01/20 00:29:34;;;;;;;6.90;3.72;;;;;;;-0.58;83.74;100620.78;334945;28;4497;-80
2024/01/20 00:29:46;;;;;;;8.35;4.38;;;;;;;-0.55;84.11;100618.31;339816;28;5430;-80
2024/01/20 00:30:00;;;;;;;8.43;4.50;;;;;;;-0.55;84.55;100620.84;337614;28;17884;-80
2024/01/20 00:30:13;;;;;;;9.23;4.47;;;;;;;-0.50;84.61;100619.31;337247;28;19082;-79
2024/01/20 00:30:25;;;;;;;8.63;4.22;;;;;;;-0.47;84.68;100621.06;339215;28;5955;-80
2024/01/20 00:30:37;;;;;;;7.93;3.85;;;;;;;-0.44;84.38;100627.13;336512;28;18143;-80
2024/01/20 00:30:50;;;;;;;7.70;3.88;;;;;;;-0.43;84.43;100623.75;334297;28;5282;-80
2024/01/20 00:31:02;;;;;;;8.15;3.90;;;;;;;-0.39;84.39;100623.84;335471;28;8602;-81
2024/01/20 00:31:15;;;;;;;9.05;4.20;;;;;;;-0.37;85.07;100623.06;337621;28;5165;-80
2024/01/20 00:31:27;;;;;;;9.05;4.25;;;;;;;-0.32;84.48;100620.63;335330;28;16408;-80
2024/01/20 00:31:39;;;;;;;8.20;4.18;;;;;;;-0.30;84.74;100624.97;337576;28;5294;-80
2024/01/20 00:31:51;;;;;;;9.48;3.88;;;;;;;-0.32;84.44;100626.63;338016;28;5257;-80
2024/01/20 00:32:03;;;;;;;10.68;4.00;;;;;;;-0.29;84.33;100636.03;335100;28;18363;-81
2024/01/20 00:32:15;;;;;;;8.13;3.97;;;;;;;-0.26;84.16;100629.34;337913;28;4537;-81
2024/01/20 00:32:28;;;;;;;7.03;3.75;;;;;;;-0.26;83.81;100629.34;330483;28;17568;-80
2024/01/20 00:32:41;;;;;;;6.70;3.67;;;;;;;-0.24;84.30;100629.38;337439;28;4575;-80
2024/01/20 00:32:53;;;;;;;9.70;4.03;;;;;;;-0.28;83.33;100627.53;334830;28;18252;-80
2024/01/20 00:33:08;;;;;;;10.32;4.03;;;;;;;-0.38;83.45;100630.66;338188;28;4487;-79
2024/01/20 00:33:21;;;;;;;10.73;3.78;;;;;;;-0.44;83.49;100629.69;333493;28;17590;-80
2024/01/20 00:33:33;;;;;;;9.88;3.60;;;;;;;-0.46;83.40;100628.78;334771;28;18177;-80
2024/01/20 00:33:45;;;;;;;8.73;3.50;;;;;;;-0.42;84.11;100625.50;338030;28;4542;-80
2024/01/20 00:33:57;;;;;;;6.43;3.05;;;;;;;-0.45;83.48;100633.06;337862;28;5319;-80
2024/01/20 00:34:10;;;;;;;5.88;2.95;;;;;;;-0.43;83.35;100633.97;335245;28;17662;-80
2024/01/20 00:34:22;;;;;;;6.70;3.25;;;;;;;-0.49;82.58;100633.78;338141;28;4473;-80
2024/01/20 00:34:34;;;;;;;7.15;3.63;;;;;;;-0.54;82.10;100632.81;335363;28;16726;-80
2024/01/20 00:35:06;;;;;;;7.82;3.65;;;;;;;-0.54;81.48;100632.81;333851;28;17993;-80
2024/01/20 00:35:20;;;;;;;8.10;3.70;;;;;;;-0.50;82.61;100641.44;329562;28;17942;-79
2024/01/20 00:35:32;;;;;;;6.97;3.45;;;;;;;-0.49;82.60;100638.03;336784;28;5101;-80
2024/01/20 00:35:45;;;;;;;6.90;3.67;;;;;;;-0.45;83.05;100630.50;331401;28;18124;-80
2024/01/20 00:35:57;;;;;;;7.88;3.60;;;;;;;-0.43;82.54;100633.09;336784;28;5425;-80
2024/01/20 00:36:09;;;;;;;7.28;3.60;;;;;;;-0.49;81.57;100638.91;334151;28;16043;-79
2024/01/20 00:36:21;;;;;;;6.70;3.25;;;;;;;-0.49;81.72;100633.78;336476;28;4725;-80
2024/01/20 00:36:33;;;;;;;8.07;3.78;;;;;;;-0.47;81.84;100632.16;336536;28;5203;-80
2024/01/20 00:36:45;;;;;;;8.38;3.90;;;;;;;-0.49;81.91;100633.78;334683;28;17812;-79
2024/01/20 00:36:58;;;;;;;8.50;3.72;;;;;;;-0.45;82.11;100634.75;333907;28;4666;-80
2024/01/20 00:37:10;;;;;;;8.07;3.60;;;;;;;-0.42;82.08;100630.59;335730;28;13322;-80
2024/01/20 00:37:22;;;;;;;6.93;3.63;;;;;;;-0.39;82.76;100639.19;338381;28;4625;-81
2024/01/20 00:37:36;;;;;;;6.75;3.75;;;;;;;-0.35;83.08;100634.19;337992;28;5268;-81
2024/01/20 00:37:48;;;;;;;8.88;3.97;;;;;;;-0.34;82.76;100632.47;335405;28;17927;-80
2024/01/20 00:38:00;;;;;;;8.80;4.00;;;;;;;-0.34;82.53;100633.38;335096;28;12347;-80
2024/01/20 00:38:13;;;;;;;7.18;3.95;;;;;;;-0.32;82.69;100635.94;337978;28;5516;-79
2024/01/20 00:38:26;;;;;;;7.32;4.00;;;;;;;-0.31;82.94;100635.13;335214;28;13723;-79
2024/01/20 00:38:39;;;;;;;7.40;3.67;;;;;;;-0.32;82.97;100633.38;333626;28;4614;-80
2024/01/20 00:38:51;;;;;;;8.38;3.63;;;;;;;-0.31;82.99;100637.69;335696;28;5106;-80
2024/01/20 00:39:03;;;;;;;7.75;3.47;;;;;;;-0.27;83.10;100639.50;337795;28;4518;-80
2024/01/20 00:39:15;;;;;;;6.60;3.30;;;;;;;-0.26;83.72;100643.81;337955;28;4672;-80
2024/01/20 00:39:27;;;;;;;6.55;3.63;;;;;;;-0.23;83.02;100636.22;335261;28;18197;-80
2024/01/20 00:39:39;;;;;;;6.85;3.60;;;;;;;-0.22;83.65;100632.84;337884;28;5101;-80
2024/01/20 00:39:51;;;;;;;6.65;3.58;;;;;;;-0.20;82.99;100641.41;333314;28;17830;-79
2024/01/20 00:40:05;;;;;;;6.03;3.47;;;;;;;-0.16;82.86;100644.91;335707;28;17156;-79
2024/01/20 00:40:17;;;;;;;7.43;3.60;;;;;;;-0.14;83.42;100641.56;334028;28;18125;-80
2024/01/20 00:40:29;;;;;;;6.95;3.63;;;;;;;-0.12;83.60;100642.47;337984;28;4517;-80
2024/01/20 00:40:41;;;;;;;8.38;3.95;;;;;;;-0.09;83.19;100645.09;334897;28;17820;-79
2024/01/20 00:40:53;;;;;;;7.38;3.75;;;;;;;-0.08;83.29;100636.63;337616;28;5237;-79
2024/01/20 00:41:06;;;;;;;6.60;3.92;;;;;;;-0.07;83.34;100633.22;335099;28;10862;-79
2024/01/20 00:41:18;;;;;;;8.50;4.15;;;;;;;-0.05;82.76;100639.25;337294;28;5772;-80
2024/01/20 00:41:33;;;;;;;9.45;4.40;;;;;;;-0.05;82.69;100641.81;330257;28;19456;-80
2024/01/20 00:41:45;;;;;;;9.15;4.40;;;;;;;-0.05;83.08;100639.25;337772;28;5044;-80
2024/01/20 00:41:57;;;;;;;9.25;4.35;;;;;;;-0.01;83.25;100642.75;335891;28;5753;-79
2024/01/20 00:42:09;;;;;;;10.10;4.10;;;;;;;0.00;82.88;100639.41;338090;28;4623;-80
2024/01/20 00:42:21;;;;;;;10.20;4.13;;;;;;;0.04;83.09;100642.88;337099;28;11046;-81
2024/01/20 00:42:33;;;;;;;7.43;3.92;;;;;;;0.05;83.30;100642.91;334970;28;18482;-79
2024/01/20 00:42:46;;;;;;;7.22;4.05;;;;;;;0.08;83.44;100644.69;337520;28;5343;-80
2024/01/20 00:42:58;;;;;;;8.10;4.03;;;;;;;0.10;82.84;100646.47;335366;28;17658;-80
2024/01/20 00:43:10;;;;;;;7.45;4.07;;;;;;;0.12;83.06;100643.94;337795;28;5029;-80
2024/01/20 00:43:22;;;;;;;8.38;4.70;;;;;;;0.12;82.55;100643.94;335535;28;7187;-79
2024/01/20 00:43:34;;;;;;;8.88;5.05;;;;;;;0.12;82.73;100646.47;337867;28;4610;-81
2024/01/20 00:43:46;;;;;;;7.90;4.25;;;;;;;0.13;82.76;100645.69;335138;28;13120;-79
2024/01/20 00:43:58;;;;;;;7.60;4.00;;;;;;;0.13;83.17;100645.69;338166;28;5360;-80
2024/01/20 00:44:11;;;;;;;8.43;4.18;;;;;;;0.11;82.75;100647.31;337875;28;4735;-80
2024/01/20 00:44:23;;;;;;;7.85;4.25;;;;;;;0.11;82.86;100649.88;335056;28;18571;-80
2024/01/20 00:44:35;;;;;;;7.30;4.32;;;;;;;0.14;82.61;100650.84;337951;28;4581;-80
2024/01/20 00:44:47;;;;;;;8.15;4.30;;;;;;;0.16;83.09;100646.63;335573;28;18168;-79
2024/01/20 00:44:59;;;;;;;8.75;4.25;;;;;;;0.15;83.15;100644.03;337790;28;4764;-80
2024/01/20 00:45:11;;;;;;;8.65;4.03;;;;;;;0.12;82.75;100647.38;337192;28;4652;-79
2024/01/20 00:45:23;;;;;;;8.77;3.80;;;;;;;0.14;83.25;100652.50;334351;28;19492;-80
2024/01/20 00:45:35;;;;;;;7.88;3.92;;;;;;;0.09;82.17;100649.84;336063;28;4864;-80
2024/01/20 00:45:47;;;;;;;8.40;3.90;;;;;;;-0.04;82.41;100647.78;329176;28;12756;-79
2024/01/20 00:46:00;;;;;;;8.07;3.65;;;;;;;-0.09;82.58;100649.34;336308;28;5322;-80
2024/01/20 00:46:12;;;;;;;9.80;3.92;;;;;;;-0.08;82.76;100654.53;336327;28;4549;-80
2024/01/20 00:46:24;;;;;;;8.57;3.95;;;;;;;-0.06;83.02;100654.53;328887;28;18352;-81
2024/01/20 00:46:36;;;;;;;8.15;4.15;;;;;;;-0.07;83.28;100648.56;336397;28;4695;-80
2024/01/20 00:46:48;;;;;;;8.45;4.50;;;;;;;-0.06;83.01;100650.31;333355;28;18349;-80
2024/01/20 00:47:00;;;;;;;8.23;4.47;;;;;;;-0.10;82.91;100648.50;336113;28;4707;-80
2024/01/20 00:47:13;;;;;;;8.48;4.20;;;;;;;-0.09;83.22;100652.78;332339;28;5546;-79
2024/01/20 00:47:25;;;;;;;8.27;4.10;;;;;;;-0.11;83.41;100651.88;338024;28;4547;-80
2024/01/20 00:47:37;;;;;;;8.25;4.05;;;;;;;-0.11;83.59;100651.88;339220;28;5461;-80
2024/01/20 00:47:51;;;;;;;8.63;4.50;;;;;;;-0.12;83.56;100655.25;335876;28;19417;-80
2024/01/20 00:48:03;;;;;;;8.23;4.43;;;;;;;-0.13;83.57;100653.50;336433;28;16172;-79
2024/01/20 00:48:15;;;;;;;7.50;4.10;;;;;;;-0.14;83.04;100649.25;339090;28;4706;-80
2024/01/20 00:48:28;;;;;;;6.47;3.70;;;;;;;-0.12;83.09;100654.38;334161;28;11975;-80
2024/01/20 00:48:40;;;;;;;6.90;3.72;;;;;;;-0.13;83.20;100643.28;336456;28;4559;-80
2024/01/20 00:48:52;;;;;;;6.80;3.60;;;;;;;-0.13;83.61;100653.50;337562;28;4625;-80
2024/01/20 00:49:04;;;;;;;7.90;3.90;;;;;;;-0.16;83.75;100652.56;333617;28;18279;-80
2024/01/20 00:49:16;;;;;;;7.97;3.97;;;;;;;-0.15;83.90;100650.06;336539;28;5495;-80
2024/01/20 00:49:28;;;;;;;8.10;4.05;;;;;;;-0.16;83.92;100653.44;333789;28;18906;-81
2024/01/20 00:49:41;;;;;;;8.82;4.70;;;;;;;-0.13;83.82;100653.50;334552;29;5507;-80
2024/01/20 00:49:53;;;;;;;9.48;4.75;;;;;;;-0.11;83.88;100646.75;333746;29;4749;-80
2024/01/20 00:50:06;;;;;;;8.32;4.25;;;;;;;-0.11;83.75;100646.75;327129;29;19747;-80
2024/01/20 00:50:18;;;;;;;8.48;4.13;;;;;;;-0.07;83.84;100652.81;331782;29;4711;-79
2024/01/20 00:50:31;;;;;;;8.35;4.20;;;;;;;-0.06;84.03;100650.31;334345;29;5006;-80
2024/01/20 00:50:43;;;;;;;7.72;4.30;;;;;;;-0.05;83.47;100641.81;333966;29;4774;-80
2024/01/20 00:50:55;;;;;;;7.97;4.30;;;;;;;-0.03;83.93;100645.25;331192;29;18376;-80
2024/01/20 00:51:07;;;;;;;9.30;4.18;;;;;;;0.02;83.59;100644.53;334180;28;5448;-80
2024/01/20 00:51:19;;;;;;;10.48;4.65;;;;;;;0.03;83.57;100646.28;332288;29;12448;-80
2024/01/20 00:51:31;;;;;;;8.32;4.38;;;;;;;0.03;83.58;100643.72;332493;28;17783;-80
2024/01/20 00:51:43;;;;;;;7.65;3.95;;;;;;;0.07;83.17;100645.53;336038;28;5508;-80
2024/01/20 00:51:55;;;;;;;6.82;3.70;;;;;;;0.10;82.94;100645.59;335099;28;18446;-80
2024/01/20 00:52:07;;;;;;;8.40;4.10;;;;;;;0.11;83.35;100648.19;337880;28;4715;-80
2024/01/20 00:52:19;;;;;;;10.27;4.55;;;;;;;0.10;82.97;100645.59;335136;28;7564;-79
2024/01/20 00:52:31;;;;;;;9.32;4.60;;;;;;;0.12;82.85;100649.03;336628;28;4787;-80
2024/01/20 00:52:43;;;;;;;6.85;4.18;;;;;;;0.13;82.68;100650.78;336376;28;4744;-80
2024/01/20 00:52:55;;;;;;;8.00;4.55;;;;;;;0.12;82.90;100647.38;337139;28;16265;-79
2024/01/20 00:53:07;;;;;;;8.88;4.60;;;;;;;0.12;83.23;100646.47;335283;28;18216;-80
2024/01/20 00:53:19;;;;;;;10.48;4.82;;;;;;;0.15;82.83;100650.00;337543;28;5115;-80
2024/01/20 00:53:31;;;;;;;8.93;4.25;;;;;;;0.18;83.44;100650.09;335038;28;17753;-79
2024/01/20 00:53:43;;;;;;;7.57;3.80;;;;;;;0.18;83.29;100649.19;338283;28;5420;-80
2024/01/20 00:53:55;;;;;;;8.88;4.32;;;;;;;0.18;82.52;100654.31;336130;28;18480;-79
2024/01/20 00:54:07;;;;;;;8.38;4.40;;;;;;;0.19;82.80;100650.94;338968;28;4729;-80
2024/01/20 00:54:19;;;;;;;8.02;4.75;;;;;;;0.19;83.31;100643.28;338593;28;12854;-80
2024/01/20 00:54:31;;;;;;;8.57;4.45;;;;;;;0.21;83.25;100646.72;329532;28;18579;-80
2024/01/20 00:54:43;;;;;;;7.63;3.97;;;;;;;0.22;83.19;100650.16;337913;28;4530;-80
2024/01/20 00:54:55;;;;;;;8.30;4.28;;;;;;;0.20;82.97;100657.78;335469;28;11859;-79
2024/01/20 00:55:08;;;;;;;9.57;4.45;;;;;;;0.22;82.79;100651.00;338021;28;4805;-80
2024/01/20 00:55:20;;;;;;;10.10;4.43;;;;;;;0.24;83.19;100646.78;337932;28;5083;-80
2024/01/20 00:55:32;;;;;;;9.98;4.18;;;;;;;0.27;83.23;100643.47;334241;28;16389;-80
2024/01/20 00:55:44;;;;;;;8.55;3.67;;;;;;;0.30;82.48;100649.53;336196;28;4546;-80
2024/01/20 00:55:56;;;;;;;8.63;3.88;;;;;;;0.31;83.05;100650.38;329425;28;17914;-80
2024/01/20 00:56:08;;;;;;;7.18;3.90;;;;;;;0.29;82.32;100652.06;336010;28;4860;-79
2024/01/20 00:56:20;;;;;;;7.90;4.15;;;;;;;0.29;82.45;100652.91;335114;29;5983;-80
2024/01/20 00:56:32;;;;;;;8.05;4.05;;;;;;;0.29;82.20;100652.06;328620;29;19226;-80
2024/01/20 00:56:44;;;;;;;6.47;3.67;;;;;;;0.32;82.58;100653.00;337014;28;4607;-81
2024/01/20 00:56:56;;;;;;;6.95;3.83;;;;;;;0.33;82.22;100649.59;334886;28;18026;-80
2024/01/20 00:57:08;;;;;;;8.65;4.38;;;;;;;0.33;nan;100648.75;337844;28;4513;-80
2024/01/20 00:57:20;;;;;;;9.25;4.65;;;;;;;0.31;82.58;100643.56;335483;28;5382;-79
2024/01/20 00:57:33;;;;;;;10.13;4.50;;;;;;;0.29;81.75;100647.78;335313;28;5425;-80
2024/01/20 00:57:45;;;;;;;9.30;4.07;;;;;;;0.31;81.87;100651.25;336417;28;4518;-80
2024/01/20 00:57:57;;;;;;;9.45;4.65;;;;;;;0.33;82.17;100654.72;335026;28;17999;-80
2024/01/20 00:58:10;;;;;;;9.40;4.68;;;;;;;0.27;82.76;100652.00;337898;28;5368;-80
2024/01/20 00:58:22;;;;;;;8.75;4.53;;;;;;;0.21;82.70;100646.72;333922;28;18102;-80
2024/01/20 00:58:34;;;;;;;8.85;4.50;;;;;;;0.06;82.01;100648.88;337432;28;5494;-80
2024/01/20 00:58:46;;;;;;;8.18;4.10;;;;;;;0.03;82.78;100648.81;337271;28;10739;-80
2024/01/20 00:58:58;;;;;;;8.00;4.22;;;;;;;0.07;82.70;100648.06;333905;28;18241;-80
2024/01/20 00:59:10;;;;;;;10.77;4.25;;;;;;;0.05;82.29;100645.47;336655;28;4704;-80
2024/01/20 00:59:22;;;;;;;11.23;4.18;;;;;;;0.09;83.09;100643.88;333768;28;18376;-80
2024/01/20 00:59:34;;;;;;;9.65;3.83;;;;;;;0.12;83.25;100655.03;336412;28;5474;-81